< < Back
Terminal Aerodrome Forecast


Current Version              Previous Versions:   1  2  3  4  5  6  7  8  9  

Terminal Aerodrome Forecast

455
FTUS44 KMRX 302320
TAFCHA
TAF
KCHA 302320Z 3100/3124 01004KT P6SM SCT250
     FM311400 03006KT P6SM SCT050 BKN150=



Latest METAR

793
SAUS80 KWBC 310100 CCA
MTRCHA
METAR KCHA 310053Z 32004KT 10SM SCT055 BKN250 BKN300 23/14 A3007 RMK AO2
SLP175 T02330139


USA.gov is the U.S. government's official web portal to all federal, state and local government web resources and services.